This is the latest recevied weather packets stored in our database for station/object DL9GRB-13. If no packets are shown the sender has not sent any weather packets the latest 10 day(s).
| Time | Temp. | Humidity | Pressure | Rain* | Wind** | Luminosity | Snow |
|---|---|---|---|---|---|---|---|
| 1777270265 | 8.33° C | 78% | 1023.3 hPa | 0 mm | - | 128 W/m² | - |
| 1777270085 | 8.33° C | 78% | 1023.5 hPa | 0 mm | - | 117 W/m² | - |
| 1777269905 | 8.33° C | 78% | 1023.4 hPa | 0 mm | - | 108 W/m² | - |
| 1777269725 | 8.33° C | 78% | 1023.3 hPa | 0 mm | - | 102 W/m² | - |
| 1777269545 | 8.33° C | 79% | 1023.4 hPa | 0 mm | - | 96 W/m² | - |
| 1777269365 | 8.33° C | 78% | 1023.2 hPa | 0 mm | - | 91 W/m² | - |
| 1777269185 | 8.33° C | 77% | 1023.2 hPa | 0 mm | - | 88 W/m² | - |
| 1777269005 | 8.33° C | 75% | 1023.1 hPa | 0 mm | - | 86 W/m² | - |
| 1777268825 | 7.78° C | 77% | 1023.3 hPa | 0 mm | - | 84 W/m² | - |
| 1777268645 | 7.78° C | 79% | 1023.1 hPa | 0 mm | - | 81 W/m² | - |
| 1777268465 | 7.22° C | 80% | 1023.3 hPa | 0 mm | - | 78 W/m² | - |
| 1777268285 | 6.67° C | 81% | 1023 hPa | 0 mm | - | 77 W/m² | - |
| 1777268105 | 5.56° C | 86% | 1023.2 hPa | 0 mm | - | 78 W/m² | - |
| 1777267925 | 5.56° C | 86% | 1023 hPa | 0 mm | - | 79 W/m² | - |
| 1777267745 | 5° C | 87% | 1022.9 hPa | 0 mm | - | 80 W/m² | - |
| 1777267565 | 4.44° C | 88% | 1023.1 hPa | 0 mm | - | 80 W/m² | - |
| 1777267385 | 3.89° C | 90% | 1023.1 hPa | 0 mm | - | 79 W/m² | - |
| 1777267205 | 3.33° C | 92% | 1022.9 hPa | 0 mm | - | 76 W/m² | - |
| 1777267025 | 2.78° C | 92% | 1023 hPa | 0 mm | - | 74 W/m² | - |
| 1777266845 | 2.78° C | 92% | 1022.9 hPa | 0 mm | - | 72 W/m² | - |
| 1777266665 | 2.78° C | 92% | 1022.9 hPa | 0 mm | - | 51 W/m² | - |
| 1777266485 | 2.78° C | 93% | 1023.1 hPa | 0 mm | - | 31 W/m² | - |
| 1777266305 | 2.22° C | 96% | 1023 hPa | 0 mm | - | 45 W/m² | - |
| 1777266125 | 2.22° C | 96% | 1022.8 hPa | 0 mm | - | 60 W/m² | - |
| 1777265945 | 1.67° C | 96% | 1022.9 hPa | 0 mm | - | 58 W/m² | - |
* Rain latest hour (hover to see other rain measurements)
** Current wind speed in m/s (hover to see current wind gust speed)